Ilyas Efendiyev — 9HES8 — position and weather

sailwx.info

Track history (hours):
 
Tides and Currents Weather Stations Pressure Air Temp Water Temp Dewpoint Dewpoint Depression Visibility Wind Speed Wind Dir Waves Ship Positions

Ilyas Efendiyev

Last reported at 2017-Jul-10 06:33 UTC. Time now 2017-Jul-26 22:39 UTC.
Position N 40°56' E 028°57'.
Warning: this ship's position is 16 days out of date.

; draft 3.6 m.

Type: Cargo ship. MMSI: 215901000.

Date/timePositionNaut miles runAvg speedWind from/ knotsBaromVisibWave heightAir tempDewpointWater temp
2017-Jul-10 06:33N 40°56' E 028°57'5 9.3
2017-Jul-10 05:58N 40°52' E 028°52'  
2017-Jul-07 02:24N 36°03' E 030°28'4 8.1
2017-Jul-07 01:54N 36°03' E 030°33'3 8.0
2017-Jul-07 01:30N 36°03' E 030°37'4 8.2
2017-Jul-07 01:00N 36°03' E 030°42'4 8.3
2017-Jul-07 00:28N 36°03' E 030°48'4 8.2
2017-Jul-07 00:00N 36°02' E 030°52'4 8.1
2017-Jul-06 23:30N 36°02' E 030°57'3 8.0
2017-Jul-06 23:11N 36°02' E 031°01'  
2017-Jul-01 09:39N 36°36' E 034°28'1 9.5
2017-Jul-01 09:30N 36°35' E 034°27'5 9.5
2017-Jul-01 09:01N 36°31' E 034°23'  
Track history (hours):
 
Tides and Currents Weather Stations Pressure Air Temp Water Temp Dewpoint Dewpoint Depression Visibility Wind Speed Wind Dir Waves Ship Positions

Ilyas Efendiyev

Last reported at 2017-Jul-10 06:33 UTC. Time now 2017-Jul-26 22:39 UTC.
Position N 40°56' E 028°57'.
Warning: this ship's position is 16 days out of date.

; draft 3.6 m.

Type: Cargo ship. MMSI: 215901000.

Date/timePositionNaut miles runAvg speedWind from/ knotsBaromVisibWave heightAir tempDewpointWater temp
2017-Jul-10 06:33N 40°56' E 028°57'5 9.3
2017-Jul-10 05:58N 40°52' E 028°52'  
2017-Jul-07 02:24N 36°03' E 030°28'4 8.1
2017-Jul-07 01:54N 36°03' E 030°33'3 8.0
2017-Jul-07 01:30N 36°03' E 030°37'4 8.2
2017-Jul-07 01:00N 36°03' E 030°42'4 8.3
2017-Jul-07 00:28N 36°03' E 030°48'4 8.2
2017-Jul-07 00:00N 36°02' E 030°52'4 8.1
2017-Jul-06 23:30N 36°02' E 030°57'3 8.0
2017-Jul-06 23:11N 36°02' E 031°01'  
2017-Jul-01 09:39N 36°36' E 034°28'1 9.5
2017-Jul-01 09:30N 36°35' E 034°27'5 9.5
2017-Jul-01 09:01N 36°31' E 034°23'  

Dump ship's entire track history